Catàleg de serveis del Meteocat
Campanya meteocatpedra

Dades de l'estació automàtica Santa Coloma de Farners

?
?
Resum diari 22:00 TU
Dades diàries de l'estació meteorològica
Temperatura mitjana 13.9 °C
Temperatura màxima 18.0 °C 13:26 TU
Temperatura mínima 10.2 °C 3:50 TU
Humitat relativa mitjana 75%
Precipitació acumulada 0.0 mm
Ratxa màxima del vent (10 m) 29.2 km/h - 60º 10:40 TU
Irradiació solar global 13.0 MJ/m2

El tram horari està expressat en Temps Universal (TU). Cal sumar una hora en horari d'hivern i dues en horari d'estiu per passar a l'hora oficial.

Santa Coloma de Farners

Metadades estació meteorol´gica
Municipi Santa Coloma de Farners
Comarca Selva
Altitud 162 m
Data alta 26.03.2013
Estat actual Operativa
Dades de període
Període
TU
TM
°C
TX
°C
TN
°C
HRM
%
PPT
mm
VVM (10 m)
km/h
DVM (10 m)
graus
VVX (10 m)
km/h
RS
W/m2
00:00 - 00:30 12.0 12.2 12.0 96 0.0 3.2 16 5.0 0
00:30 - 01:00 12.1 12.1 12.1 95 0.0 1.8 336 4.3 0
01:00 - 01:30 12.1 12.1 12.1 95 0.0 2.5 3 6.5 0
01:30 - 02:00 12.0 12.1 11.7 95 0.0 2.2 314 4.7 0
02:00 - 02:30 11.4 11.7 11.2 94 0.0 2.5 282 5.8 0
02:30 - 03:00 11.1 11.3 10.6 93 0.0 3.6 291 5.8 0
03:00 - 03:30 10.5 10.6 10.4 95 0.0 4.0 302 6.8 0
03:30 - 04:00 10.3 10.5 10.2 95 0.0 4.0 302 6.1 0
04:00 - 04:30 10.4 10.5 10.3 95 0.0 4.3 302 7.2 0
04:30 - 05:00 10.3 10.4 10.3 95 0.0 4.3 307 7.2 0
05:00 - 05:30 10.7 10.9 10.4 95 0.0 5.0 320 8.6 6
05:30 - 06:00 10.7 10.9 10.5 94 0.0 4.3 313 7.2 35
06:00 - 06:30 11.4 11.9 10.9 91 0.0 4.3 325 9.0 69
06:30 - 07:00 12.3 12.5 11.9 88 0.0 4.3 15 12.2 101
07:00 - 07:30 12.8 13.1 12.5 85 0.0 8.3 43 17.3 172
07:30 - 08:00 13.3 13.9 12.9 84 0.0 10.8 42 18.4 277
08:00 - 08:30 14.1 14.4 13.8 79 0.0 10.4 35 17.6 313
08:30 - 09:00 14.3 14.6 14.1 75 0.0 10.4 38 18.4 269
09:00 - 09:30 14.7 15.1 14.4 70 0.0 10.4 42 17.3 329
09:30 - 10:00 15.9 16.8 15.2 63 0.0 9.7 14 20.9 528
10:00 - 10:30 16.7 17.2 16.4 60 0.0 12.2 34 22.7 629
10:30 - 11:00 16.9 17.2 16.3 60 0.0 14.4 39 29.2 546
11:00 - 11:30 16.4 16.5 16.2 63 0.0 15.8 41 28.1 333
11:30 - 12:00 16.4 16.5 16.1 63 0.0 13.7 39 24.5 251
12:00 - 12:30 16.8 17.2 16.3 61 0.0 12.6 37 24.8 306
12:30 - 13:00 16.9 17.4 16.6 59 0.0 14.0 34 27.0 351
13:00 - 13:30 17.6 18.0 17.3 58 0.0 11.9 33 22.7 422
13:30 - 14:00 17.5 17.8 17.2 56 0.0 14.4 46 29.2 370
14:00 - 14:30 17.4 17.6 17.2 56 0.0 13.3 41 25.6 324
14:30 - 15:00 17.3 17.5 17.1 59 0.0 15.5 44 28.1 388
15:00 - 15:30 16.7 17.1 16.5 62 0.0 14.8 27 28.4 313
15:30 - 16:00 16.8 17.1 16.6 61 0.0 12.6 27 25.2 395
16:00 - 16:30 16.2 16.6 15.7 64 0.0 15.1 34 23.8 236
16:30 - 17:00 15.5 15.7 15.1 68 0.0 13.3 44 23.0 145
17:00 - 17:30 15.0 15.1 14.7 69 0.0 12.6 39 24.1 99
17:30 - 18:00 14.4 14.7 14.2 71 0.0 10.4 32 24.1 43
18:00 - 18:30 14.0 14.2 13.7 74 0.0 14.0 24 28.4 12
18:30 - 19:00 13.4 13.7 13.2 75 0.0 10.1 11 25.2 0
19:00 - 19:30 13.3 13.5 13.1 71 0.0 6.1 358 11.2 0
19:30 - 20:00 13.3 13.4 13.2 66 0.0 5.8 9 11.5 0
20:00 - 20:30 13.4 13.7 12.9 62 0.0 7.2 26 25.9 0
20:30 - 21:00 13.3 13.6 12.8 61 0.0 5.4 18 13.0 0
21:00 - 21:30 13.4 13.5 13.3 61 0.0 6.8 13 21.2 0
21:30 - 22:00 13.0 13.3 12.9 63 0.0 5.0 356 12.6 0
22:00 - 22:30 12.7 13.0 12.5 66 0.0 6.8 334 15.5 0

Les dades en taronja només han passat un control de qualitat automàtic. Resta pendent la seva validació definitiva.